sensor_id;sensor_type;location;lat;lon;timestamp;pressure;altitude;pressure_sealevel;temperature;humidity
40596;BME280;26304;48.794;9.820;2023-02-20T00:00:45;97340.66;;;17.93;50.81
40596;BME280;26304;48.794;9.820;2023-02-20T00:06:28;97347.41;;;17.90;50.50
40596;BME280;26304;48.794;9.820;2023-02-20T00:12:11;97347.41;;;17.90;50.78
40596;BME280;26304;48.794;9.820;2023-02-20T00:17:54;97340.94;;;17.88;51.18
40596;BME280;26304;48.794;9.820;2023-02-20T00:23:36;97342.00;;;17.87;50.94
40596;BME280;26304;48.794;9.820;2023-02-20T00:29:22;97332.16;;;17.84;50.96
40596;BME280;26304;48.794;9.820;2023-02-20T00:35:05;97340.38;;;17.82;51.04
40596;BME280;26304;48.794;9.820;2023-02-20T00:40:47;97349.06;;;17.83;50.92
40596;BME280;26304;48.794;9.820;2023-02-20T00:46:31;97346.03;;;17.81;51.26
40596;BME280;26304;48.794;9.820;2023-02-20T00:52:14;97366.63;;;17.78;50.96
40596;BME280;26304;48.794;9.820;2023-02-20T00:57:56;97377.13;;;17.78;50.46
40596;BME280;26304;48.794;9.820;2023-02-20T01:03:40;97370.38;;;17.77;50.63
40596;BME280;26304;48.794;9.820;2023-02-20T01:09:22;97345.56;;;17.78;50.58
40596;BME280;26304;48.794;9.820;2023-02-20T01:15:08;97350.09;;;17.78;50.23
40596;BME280;26304;48.794;9.820;2023-02-20T01:20:53;97358.31;;;17.76;50.34
40596;BME280;26304;48.794;9.820;2023-02-20T01:26:36;97345.50;;;17.75;50.45
40596;BME280;26304;48.794;9.820;2023-02-20T01:32:18;97335.31;;;17.73;50.53
40596;BME280;26304;48.794;9.820;2023-02-20T01:38:03;97326.34;;;17.74;50.19
40596;BME280;26304;48.794;9.820;2023-02-20T01:43:46;97332.34;;;17.75;50.26
40596;BME280;26304;48.794;9.820;2023-02-20T01:49:33;97328.97;;;17.74;50.04
40596;BME280;26304;48.794;9.820;2023-02-20T01:55:20;97331.16;;;17.72;50.29
40596;BME280;26304;48.794;9.820;2023-02-20T02:01:04;97330.41;;;17.72;50.17
40596;BME280;26304;48.794;9.820;2023-02-20T02:06:48;97320.56;;;17.69;50.12
40596;BME280;26304;48.794;9.820;2023-02-20T02:12:35;97306.22;;;17.66;50.55
40596;BME280;26304;48.794;9.820;2023-02-20T02:18:26;97298.78;;;17.68;50.65
40596;BME280;26304;48.794;9.820;2023-02-20T02:24:43;97286.69;;;17.99;50.08
40596;BME280;26304;48.794;9.820;2023-02-20T02:30:52;97294.00;;;19.27;47.69
40596;BME280;26304;48.794;9.820;2023-02-20T02:36:49;97307.91;;;20.23;45.90
40596;BME280;26304;48.794;9.820;2023-02-20T02:42:39;97316.28;;;20.63;45.26
40596;BME280;26304;48.794;9.820;2023-02-20T02:48:27;97311.94;;;20.74;45.34
40596;BME280;26304;48.794;9.820;2023-02-20T02:54:15;97299.00;;;21.03;44.77
40596;BME280;26304;48.794;9.820;2023-02-20T03:00:02;97290.41;;;21.58;44.43
40596;BME280;26304;48.794;9.820;2023-02-20T03:05:49;97296.28;;;21.89;43.83
40596;BME280;26304;48.794;9.820;2023-02-20T03:11:35;97294.47;;;22.04;43.79
40596;BME280;26304;48.794;9.820;2023-02-20T03:17:25;97302.22;;;21.71;44.36
40596;BME280;26304;48.794;9.820;2023-02-20T03:23:13;97298.47;;;21.31;45.40
40596;BME280;26304;48.794;9.820;2023-02-20T03:29:03;97307.22;;;20.94;46.17
40596;BME280;26304;48.794;9.820;2023-02-20T03:34:48;97307.94;;;20.91;46.25
40596;BME280;26304;48.794;9.820;2023-02-20T03:40:49;97305.31;;;20.95;45.94
40596;BME280;26304;48.794;9.820;2023-02-20T03:46:54;97305.63;;;21.72;44.82
40596;BME280;26304;48.794;9.820;2023-02-20T03:52:38;97295.31;;;22.22;43.69
40596;BME280;26304;48.794;9.820;2023-02-20T03:58:23;97308.38;;;22.56;43.14
40596;BME280;26304;48.794;9.820;2023-02-20T04:04:12;97309.91;;;22.72;43.02
40596;BME280;26304;48.794;9.820;2023-02-20T04:09:58;97314.28;;;22.28;44.01
40596;BME280;26304;48.794;9.820;2023-02-20T04:15:43;97295.44;;;21.77;45.02
40596;BME280;26304;48.794;9.820;2023-02-20T04:21:31;97294.22;;;21.61;45.38
40596;BME280;26304;48.794;9.820;2023-02-20T04:27:15;97294.22;;;21.64;45.43
40596;BME280;26304;48.794;9.820;2023-02-20T04:32:57;97287.38;;;21.56;45.56
40596;BME280;26304;48.794;9.820;2023-02-20T04:38:41;97282.09;;;21.56;45.41
40596;BME280;26304;48.794;9.820;2023-02-20T04:44:23;97279.69;;;21.44;45.89
40596;BME280;26304;48.794;9.820;2023-02-20T04:50:15;97291.97;;;21.21;46.28
40596;BME280;26304;48.794;9.820;2023-02-20T04:56:01;97288.78;;;21.01;46.84
40596;BME280;26304;48.794;9.820;2023-02-20T05:01:43;97289.81;;;20.93;46.98
40596;BME280;26304;48.794;9.820;2023-02-20T05:07:29;97295.50;;;20.61;47.68
40596;BME280;26304;48.794;9.820;2023-02-20T05:13:13;97306.03;;;20.58;48.01
40596;BME280;26304;48.794;9.820;2023-02-20T05:18:55;97310.38;;;20.39;48.49
40596;BME280;26304;48.794;9.820;2023-02-20T05:24:37;97308.44;;;20.36;49.05
40596;BME280;26304;48.794;9.820;2023-02-20T05:30:21;97306.72;;;20.51;48.79
40596;BME280;26304;48.794;9.820;2023-02-20T05:36:04;97296.25;;;20.58;48.60
40596;BME280;26304;48.794;9.820;2023-02-20T05:41:47;97299.09;;;20.42;49.12
40596;BME280;26304;48.794;9.820;2023-02-20T05:47:31;97299.38;;;20.37;48.79
40596;BME280;26304;48.794;9.820;2023-02-20T05:53:13;97299.34;;;20.33;49.01
40596;BME280;26304;48.794;9.820;2023-02-20T05:58:56;97303.34;;;20.20;49.37
40596;BME280;26304;48.794;9.820;2023-02-20T06:04:39;97298.66;;;20.10;49.55
40596;BME280;26304;48.794;9.820;2023-02-20T06:10:22;97291.75;;;20.02;49.07
40596;BME280;26304;48.794;9.820;2023-02-20T06:16:05;97313.00;;;19.82;49.59
40596;BME280;26304;48.794;9.820;2023-02-20T06:21:50;97314.91;;;19.85;49.43
40596;BME280;26304;48.794;9.820;2023-02-20T06:27:33;97324.34;;;19.86;49.89
40596;BME280;26304;48.794;9.820;2023-02-20T06:33:15;97320.53;;;19.60;49.78
40596;BME280;26304;48.794;9.820;2023-02-20T06:38:59;97316.44;;;19.40;50.70
40596;BME280;26304;48.794;9.820;2023-02-20T06:44:42;97309.25;;;19.60;49.79
40596;BME280;26304;48.794;9.820;2023-02-20T06:50:24;97321.25;;;19.57;49.72
40596;BME280;26304;48.794;9.820;2023-02-20T06:56:09;97335.91;;;19.55;49.46
40596;BME280;26304;48.794;9.820;2023-02-20T07:01:51;97341.63;;;19.60;49.53
40596;BME280;26304;48.794;9.820;2023-02-20T07:07:34;97344.94;;;19.54;49.56
40596;BME280;26304;48.794;9.820;2023-02-20T07:13:17;97337.53;;;19.40;50.00
40596;BME280;26304;48.794;9.820;2023-02-20T07:19:00;97349.88;;;19.32;50.30
40596;BME280;26304;48.794;9.820;2023-02-20T07:24:42;97362.25;;;19.32;50.35
40596;BME280;26304;48.794;9.820;2023-02-20T07:30:26;97350.06;;;19.23;49.95
40596;BME280;26304;48.794;9.820;2023-02-20T07:36:09;97350.81;;;19.24;50.10
40596;BME280;26304;48.794;9.820;2023-02-20T07:41:51;97346.19;;;19.17;50.23
40596;BME280;26304;48.794;9.820;2023-02-20T07:47:35;97356.94;;;19.28;49.82
40596;BME280;26304;48.794;9.820;2023-02-20T07:53:19;97338.72;;;19.19;50.69
40596;BME280;26304;48.794;9.820;2023-02-20T07:59:02;97340.72;;;19.26;50.59
40596;BME280;26304;48.794;9.820;2023-02-20T08:04:45;97336.72;;;19.36;49.76
40596;BME280;26304;48.794;9.820;2023-02-20T08:10:28;97333.84;;;19.21;50.35
40596;BME280;26304;48.794;9.820;2023-02-20T08:16:11;97334.19;;;19.43;50.33
40596;BME280;26304;48.794;9.820;2023-02-20T08:21:55;97337.66;;;19.47;50.09
40596;BME280;26304;48.794;9.820;2023-02-20T08:27:41;97329.75;;;19.47;49.76
40596;BME280;26304;48.794;9.820;2023-02-20T08:33:23;97315.47;;;19.48;50.08
40596;BME280;26304;48.794;9.820;2023-02-20T08:39:07;97323.38;;;19.48;50.50
40596;BME280;26304;48.794;9.820;2023-02-20T08:44:49;97313.81;;;19.40;50.52
40596;BME280;26304;48.794;9.820;2023-02-20T08:50:32;97296.13;;;19.40;50.55
40596;BME280;26304;48.794;9.820;2023-02-20T08:56:18;97303.75;;;19.46;50.83
40596;BME280;26304;48.794;9.820;2023-02-20T09:02:00;97286.50;;;19.52;50.42
40596;BME280;26304;48.794;9.820;2023-02-20T09:07:43;97284.31;;;19.57;50.37
40596;BME280;26304;48.794;9.820;2023-02-20T09:13:27;97293.50;;;19.67;50.49
40596;BME280;26304;48.794;9.820;2023-02-20T09:19:10;97285.25;;;19.69;50.22
40596;BME280;26304;48.794;9.820;2023-02-20T09:24:54;97288.31;;;19.71;50.36
40596;BME280;26304;48.794;9.820;2023-02-20T09:30:37;97266.91;;;19.76;50.30
40596;BME280;26304;48.794;9.820;2023-02-20T09:36:20;97268.94;;;19.86;50.37
40596;BME280;26304;48.794;9.820;2023-02-20T09:42:10;97265.19;;;19.87;50.10
40596;BME280;26304;48.794;9.820;2023-02-20T09:48:09;97251.69;;;19.92;50.21
40596;BME280;26304;48.794;9.820;2023-02-20T09:53:55;97243.88;;;20.00;50.24
40596;BME280;26304;48.794;9.820;2023-02-20T09:59:41;97238.91;;;19.94;50.30
40596;BME280;26304;48.794;9.820;2023-02-20T10:05:27;97243.41;;;19.94;50.56
40596;BME280;26304;48.794;9.820;2023-02-20T10:11:18;97244.38;;;20.09;50.00
40596;BME280;26304;48.794;9.820;2023-02-20T10:17:14;97233.97;;;20.23;49.89
40596;BME280;26304;48.794;9.820;2023-02-20T10:23:09;97227.00;;;20.08;49.62
40596;BME280;26304;48.794;9.820;2023-02-20T10:28:57;97215.63;;;18.77;43.19
40596;BME280;26304;48.794;9.820;2023-02-20T10:34:52;97232.13;;;18.74;44.68
40596;BME280;26304;48.794;9.820;2023-02-20T10:40:39;97221.72;;;18.62;44.17
40596;BME280;26304;48.794;9.820;2023-02-20T10:46:30;97239.44;;;18.42;43.92
40596;BME280;26304;48.794;9.820;2023-02-20T10:52:17;97227.59;;;18.32;44.00
40596;BME280;26304;48.794;9.820;2023-02-20T10:58:05;97219.53;;;18.25;42.59
40596;BME280;26304;48.794;9.820;2023-02-20T11:03:54;97212.34;;;18.02;43.47
40596;BME280;26304;48.794;9.820;2023-02-20T11:09:40;97202.78;;;17.94;43.13
40596;BME280;26304;48.794;9.820;2023-02-20T11:15:27;97189.50;;;18.26;42.66
40596;BME280;26304;48.794;9.820;2023-02-20T11:21:37;97193.22;;;18.25;42.49
40596;BME280;26304;48.794;9.820;2023-02-20T11:27:20;97187.97;;;18.25;43.14
40596;BME280;26304;48.794;9.820;2023-02-20T11:33:05;97183.97;;;17.92;43.09
40596;BME280;26304;48.794;9.820;2023-02-20T11:38:58;97169.44;;;18.83;43.05
40596;BME280;26304;48.794;9.820;2023-02-20T11:44:41;97164.25;;;19.10;43.28
40596;BME280;26304;48.794;9.820;2023-02-20T11:50:37;97150.97;;;19.30;43.88
40596;BME280;26304;48.794;9.820;2023-02-20T11:56:21;97142.03;;;19.38;44.22
40596;BME280;26304;48.794;9.820;2023-02-20T12:02:15;97135.00;;;19.49;44.37
40596;BME280;26304;48.794;9.820;2023-02-20T12:08:02;97128.41;;;19.63;45.04
40596;BME280;26304;48.794;9.820;2023-02-20T12:13:47;97111.91;;;19.69;45.32
40596;BME280;26304;48.794;9.820;2023-02-20T12:19:38;97108.91;;;19.71;45.63
40596;BME280;26304;48.794;9.820;2023-02-20T12:25:27;97096.50;;;19.75;46.04
40596;BME280;26304;48.794;9.820;2023-02-20T12:31:20;97086.13;;;19.86;46.18
40596;BME280;26304;48.794;9.820;2023-02-20T12:37:09;97077.84;;;19.87;46.45
40596;BME280;26304;48.794;9.820;2023-02-20T12:43:03;97061.03;;;20.03;46.38
40596;BME280;26304;48.794;9.820;2023-02-20T12:49:04;97053.88;;;20.03;46.44
40596;BME280;26304;48.794;9.820;2023-02-20T12:54:56;97047.53;;;20.11;46.36
40596;BME280;26304;48.794;9.820;2023-02-20T13:00:44;97046.44;;;20.16;46.21
40596;BME280;26304;48.794;9.820;2023-02-20T13:06:32;97037.53;;;20.31;46.54
40596;BME280;26304;48.794;9.820;2023-02-20T13:12:16;97026.56;;;20.29;46.70
40596;BME280;26304;48.794;9.820;2023-02-20T13:18:03;97013.78;;;20.35;46.85
40596;BME280;26304;48.794;9.820;2023-02-20T13:23:49;97010.84;;;20.44;46.67
40596;BME280;26304;48.794;9.820;2023-02-20T13:29:35;97001.50;;;20.57;47.62
40596;BME280;26304;48.794;9.820;2023-02-20T13:35:33;97003.47;;;20.64;47.21
40596;BME280;26304;48.794;9.820;2023-02-20T13:41:17;96993.59;;;20.61;47.44
40596;BME280;26304;48.794;9.820;2023-02-20T13:47:00;96974.09;;;20.76;47.14
40596;BME280;26304;48.794;9.820;2023-02-20T13:52:44;96971.03;;;20.71;47.19
40596;BME280;26304;48.794;9.820;2023-02-20T13:58:29;96952.28;;;20.90;48.01
40596;BME280;26304;48.794;9.820;2023-02-20T14:04:19;96929.25;;;20.91;47.36
40596;BME280;26304;48.794;9.820;2023-02-20T14:10:05;96914.56;;;21.04;47.59
40596;BME280;26304;48.794;9.820;2023-02-20T14:15:51;96908.53;;;21.11;48.07
40596;BME280;26304;48.794;9.820;2023-02-20T14:21:37;96911.59;;;21.20;47.58
40596;BME280;26304;48.794;9.820;2023-02-20T14:27:26;96906.41;;;20.54;45.77
40596;BME280;26304;48.794;9.820;2023-02-20T14:33:19;96899.44;;;20.27;44.25
40596;BME280;26304;48.794;9.820;2023-02-20T14:39:15;96901.66;;;20.18;43.54
40596;BME280;26304;48.794;9.820;2023-02-20T14:45:04;96902.47;;;20.29;43.35
40596;BME280;26304;48.794;9.820;2023-02-20T14:51:08;96902.88;;;20.31;43.00
40596;BME280;26304;48.794;9.820;2023-02-20T14:56:52;96900.69;;;20.41;43.09
40596;BME280;26304;48.794;9.820;2023-02-20T15:02:35;96898.00;;;20.37;43.00
40596;BME280;26304;48.794;9.820;2023-02-20T15:08:21;96890.94;;;20.52;42.61
40596;BME280;26304;48.794;9.820;2023-02-20T15:14:15;96895.94;;;20.72;42.70
40596;BME280;26304;48.794;9.820;2023-02-20T15:19:58;96886.53;;;20.78;43.15
40596;BME280;26304;48.794;9.820;2023-02-20T15:25:43;96887.22;;;20.67;43.07
40596;BME280;26304;48.794;9.820;2023-02-20T15:31:25;96875.13;;;19.96;43.44
40596;BME280;26304;48.794;9.820;2023-02-20T15:37:17;96880.66;;;19.81;42.50
40596;BME280;26304;48.794;9.820;2023-02-20T15:43:01;96876.81;;;19.74;43.11
40596;BME280;26304;48.794;9.820;2023-02-20T15:48:44;96881.13;;;19.49;41.29
40596;BME280;26304;48.794;9.820;2023-02-20T15:54:26;96878.84;;;19.47;41.02
40596;BME280;26304;48.794;9.820;2023-02-20T16:00:17;96867.44;;;19.36;41.01
40596;BME280;26304;48.794;9.820;2023-02-20T16:06:01;96867.66;;;19.20;41.11
40596;BME280;26304;48.794;9.820;2023-02-20T16:11:45;96871.78;;;19.17;40.21
40596;BME280;26304;48.794;9.820;2023-02-20T16:17:32;96873.28;;;19.15;41.25
40596;BME280;26304;48.794;9.820;2023-02-20T16:23:15;96888.25;;;19.07;40.30
40596;BME280;26304;48.794;9.820;2023-02-20T16:28:59;96874.59;;;18.98;40.17
40596;BME280;26304;48.794;9.820;2023-02-20T16:34:43;96874.63;;;19.01;41.31
40596;BME280;26304;48.794;9.820;2023-02-20T16:40:25;96870.53;;;19.04;41.88
40596;BME280;26304;48.794;9.820;2023-02-20T16:46:08;96856.91;;;18.98;41.77
40596;BME280;26304;48.794;9.820;2023-02-20T16:51:52;96859.03;;;18.85;41.12
40596;BME280;26304;48.794;9.820;2023-02-20T16:57:41;96847.09;;;18.65;41.65
40596;BME280;26304;48.794;9.820;2023-02-20T17:03:23;96840.22;;;19.24;42.36
40596;BME280;26304;48.794;9.820;2023-02-20T17:09:09;96824.53;;;19.39;41.59
40596;BME280;26304;48.794;9.820;2023-02-20T17:14:51;96830.22;;;19.45;42.13
40596;BME280;26304;48.794;9.820;2023-02-20T17:20:34;96827.63;;;19.48;42.20
40596;BME280;26304;48.794;9.820;2023-02-20T17:26:18;96830.03;;;19.64;43.04
40596;BME280;26304;48.794;9.820;2023-02-20T17:32:00;96833.78;;;19.67;43.11
40596;BME280;26304;48.794;9.820;2023-02-20T17:37:43;96835.25;;;19.60;43.15
40596;BME280;26304;48.794;9.820;2023-02-20T17:43:27;96836.69;;;19.51;43.55
40596;BME280;26304;48.794;9.820;2023-02-20T17:49:09;96835.94;;;19.50;43.67
40596;BME280;26304;48.794;9.820;2023-02-20T17:54:53;96840.47;;;19.53;43.95
40596;BME280;26304;48.794;9.820;2023-02-20T18:00:37;96837.38;;;19.44;44.65
40596;BME280;26304;48.794;9.820;2023-02-20T18:06:20;96836.69;;;19.51;44.35
40596;BME280;26304;48.794;9.820;2023-02-20T18:12:03;96831.50;;;19.62;44.64
40596;BME280;26304;48.794;9.820;2023-02-20T18:17:47;96835.78;;;19.77;45.65
40596;BME280;26304;48.794;9.820;2023-02-20T18:23:30;96835.34;;;19.75;45.32
40596;BME280;26304;48.794;9.820;2023-02-20T18:29:12;96838.00;;;19.75;45.09
40596;BME280;26304;48.794;9.820;2023-02-20T18:34:56;96830.91;;;19.79;45.73
40596;BME280;26304;48.794;9.820;2023-02-20T18:40:38;96829.78;;;19.80;45.36
40596;BME280;26304;48.794;9.820;2023-02-20T18:46:26;96840.03;;;19.92;46.06
40596;BME280;26304;48.794;9.820;2023-02-20T18:52:10;96844.19;;;19.93;46.17
40596;BME280;26304;48.794;9.820;2023-02-20T18:57:53;96853.31;;;20.07;46.18
40596;BME280;26304;48.794;9.820;2023-02-20T19:03:35;96860.63;;;20.28;46.88
40596;BME280;26304;48.794;9.820;2023-02-20T19:09:21;96859.41;;;20.18;46.94
40596;BME280;26304;48.794;9.820;2023-02-20T19:15:05;96853.41;;;20.21;48.29
40596;BME280;26304;48.794;9.820;2023-02-20T19:20:48;96846.25;;;20.25;48.07
40596;BME280;26304;48.794;9.820;2023-02-20T19:26:33;96840.19;;;20.21;47.89
40596;BME280;26304;48.794;9.820;2023-02-20T19:32:16;96842.84;;;20.21;47.44
40596;BME280;26304;48.794;9.820;2023-02-20T19:37:59;96857.56;;;20.22;47.05
40596;BME280;26304;48.794;9.820;2023-02-20T19:43:45;96851.75;;;19.50;44.84
40596;BME280;26304;48.794;9.820;2023-02-20T19:49:28;96842.53;;;19.30;43.61
40596;BME280;26304;48.794;9.820;2023-02-20T19:55:15;96830.41;;;19.21;43.60
40596;BME280;26304;48.794;9.820;2023-02-20T20:00:59;96839.22;;;18.99;42.70
40596;BME280;26304;48.794;9.820;2023-02-20T20:06:41;96825.63;;;18.93;42.48
40596;BME280;26304;48.794;9.820;2023-02-20T20:12:24;96838.41;;;18.91;42.17
40596;BME280;26304;48.794;9.820;2023-02-20T20:18:25;96839.69;;;18.74;41.56
40596;BME280;26304;48.794;9.820;2023-02-20T20:24:09;96834.34;;;18.67;41.46
40596;BME280;26304;48.794;9.820;2023-02-20T20:29:52;96843.31;;;18.62;40.97
40596;BME280;26304;48.794;9.820;2023-02-20T20:35:36;96844.59;;;18.45;41.12
40596;BME280;26304;48.794;9.820;2023-02-20T20:41:18;96836.13;;;18.29;41.79
40596;BME280;26304;48.794;9.820;2023-02-20T20:47:01;96835.31;;;18.25;41.88
40596;BME280;26304;48.794;9.820;2023-02-20T20:52:45;96830.88;;;18.29;43.96
40596;BME280;26304;48.794;9.820;2023-02-20T20:58:28;96841.00;;;18.27;41.32
40596;BME280;26304;48.794;9.820;2023-02-20T21:04:11;96843.47;;;18.16;40.55
40596;BME280;26304;48.794;9.820;2023-02-20T21:09:54;96840.38;;;18.10;40.86
40596;BME280;26304;48.794;9.820;2023-02-20T21:15:37;96830.69;;;17.65;41.43
40596;BME280;26304;48.794;9.820;2023-02-20T21:21:24;96825.53;;;17.95;41.82
40596;BME280;26304;48.794;9.820;2023-02-20T21:27:11;96834.69;;;17.82;41.95
40596;BME280;26304;48.794;9.820;2023-02-20T21:32:56;96827.03;;;17.96;41.82
40596;BME280;26304;48.794;9.820;2023-02-20T21:38:38;96823.19;;;18.17;41.77
40596;BME280;26304;48.794;9.820;2023-02-20T21:44:23;96816.84;;;18.21;42.02
40596;BME280;26304;48.794;9.820;2023-02-20T21:50:09;96814.97;;;18.22;41.66
40596;BME280;26304;48.794;9.820;2023-02-20T21:55:52;96805.22;;;18.22;42.05
40596;BME280;26304;48.794;9.820;2023-02-20T22:01:37;96803.69;;;18.21;42.45
40596;BME280;26304;48.794;9.820;2023-02-20T22:07:18;96800.66;;;18.19;42.62
40596;BME280;26304;48.794;9.820;2023-02-20T22:13:18;96798.41;;;18.18;42.41
40596;BME280;26304;48.794;9.820;2023-02-20T22:19:19;96807.38;;;18.17;42.97
40596;BME280;26304;48.794;9.820;2023-02-20T22:25:19;96808.09;;;18.13;43.24
40596;BME280;26304;48.794;9.820;2023-02-20T22:31:19;96799.06;;;18.11;42.96
40596;BME280;26304;48.794;9.820;2023-02-20T22:37:20;96811.06;;;18.08;43.18
40596;BME280;26304;48.794;9.820;2023-02-20T22:43:20;96814.78;;;18.07;43.56
40596;BME280;26304;48.794;9.820;2023-02-20T22:49:20;96806.50;;;18.05;43.82
40596;BME280;26304;48.794;9.820;2023-02-20T22:55:21;96801.94;;;18.02;44.05
40596;BME280;26304;48.794;9.820;2023-02-20T23:01:21;96797.00;;;17.97;43.74
40596;BME280;26304;48.794;9.820;2023-02-20T23:07:21;96793.97;;;17.95;44.58
40596;BME280;26304;48.794;9.820;2023-02-20T23:13:22;96799.59;;;17.93;44.53
40596;BME280;26304;48.794;9.820;2023-02-20T23:19:22;96790.91;;;17.93;44.10
40596;BME280;26304;48.794;9.820;2023-02-20T23:25:22;96783.72;;;17.90;44.64
40596;BME280;26304;48.794;9.820;2023-02-20T23:31:31;96786.00;;;17.91;44.79
40596;BME280;26304;48.794;9.820;2023-02-20T23:37:32;96788.59;;;17.88;44.86
40596;BME280;26304;48.794;9.820;2023-02-20T23:43:32;96784.41;;;17.87;44.80
40596;BME280;26304;48.794;9.820;2023-02-20T23:49:33;96778.00;;;17.84;44.91
40596;BME280;26304;48.794;9.820;2023-02-20T23:55:33;96781.72;;;17.83;44.55
